Time;durP1;ratioP1;P1;durP2;ratioP2;P2;SDS_P1;SDS_P2;PMS_P1;PMS_P2;Temp;Humidity;BMP_temperature;BMP_pressure;BME280_temperature;BME280_humidity;BME280_pressure;Samples;Min_cycle;Max_cycle;Signal;HPM_P1;HPM_P2
2023/02/14 00:01:55;;;;;;;;;;;6.30;99.90;;;;;;5054258;28;19922;-67
2023/02/14 00:04:21;;;;;;;;;;;6.30;99.90;;;;;;5078815;28;19951;-66
2023/02/14 00:06:47;;;;;;;;;;;6.30;99.90;;;;;;5083590;28;19916;-65
2023/02/14 00:09:14;;;;;;;;;;;6.40;99.90;;;;;;5084394;28;19961;-67
2023/02/14 00:11:40;;;;;;;;;;;6.20;99.90;;;;;;5085236;28;20015;-67
2023/02/14 00:16:50;;;;;;;;;;;6.30;99.90;;;;;;5080722;28;19923;-66
2023/02/14 00:19:17;;;;;;;;;;;6.20;99.90;;;;;;5084137;28;19912;-66
2023/02/14 00:21:42;;;;;;;;;;;6.20;99.90;;;;;;5105461;28;19921;-67
2023/02/14 00:24:12;;;;;;;;;;;6.20;99.90;;;;;;5088045;28;19916;-66
2023/02/14 00:26:38;;;;;;;;;;;6.10;99.90;;;;;;5104940;28;19912;-65
2023/02/14 00:29:04;;;;;;;;;;;6.10;99.90;;;;;;5103214;28;19965;-67
2023/02/14 00:31:30;;;;;;;;;;;6.10;99.90;;;;;;5109157;28;19916;-64
2023/02/14 00:33:56;;;;;;;;;;;6.10;99.90;;;;;;5111313;28;19918;-67
2023/02/14 00:36:21;;;;;;;;;;;6.10;99.90;;;;;;5105954;28;19920;-67
2023/02/14 00:38:47;;;;;;;;;;;6.20;99.90;;;;;;5110423;28;19918;-67
2023/02/14 00:41:18;;;;;;;;;;;6.10;99.90;;;;;;5110364;28;19968;-67
2023/02/14 00:43:45;;;;;;;;;;;6.10;99.90;;;;;;5087961;28;19982;-67
2023/02/14 00:46:10;;;;;;;;;;;6.10;99.90;;;;;;5110910;28;19947;-66
2023/02/14 00:48:36;;;;;;;;;;;6.10;99.90;;;;;;5102347;28;20428;-66
2023/02/14 00:51:02;;;;;;;;;;;6.10;99.90;;;;;;5078490;28;19935;-66
2023/02/14 00:53:27;;;;;;;;;;;6.20;99.90;;;;;;5081736;28;19922;-67
2023/02/14 00:55:53;;;;;;;;;;;6.10;99.90;;;;;;5100732;28;19914;-66
2023/02/14 00:58:19;;;;;;;;;;;6.10;99.90;;;;;;5101541;28;20352;-67
2023/02/14 01:00:44;;;;;;;;;;;6.10;99.90;;;;;;5095305;28;19919;-65
2023/02/14 01:03:10;;;;;;;;;;;6.10;99.90;;;;;;5099412;28;19912;-67
2023/02/14 01:05:36;;;;;;;;;;;6.10;99.90;;;;;;5107224;28;19977;-67
2023/02/14 01:08:01;;;;;;;;;;;6.00;99.90;;;;;;5106714;28;20005;-66
2023/02/14 01:10:27;;;;;;;;;;;6.10;99.90;;;;;;5108320;28;19908;-66
2023/02/14 01:12:56;;;;;;;;;;;6.00;99.90;;;;;;5107964;28;20007;-65
2023/02/14 01:15:22;;;;;;;;;;;6.10;99.90;;;;;;5108143;28;20015;-65
2023/02/14 01:17:47;;;;;;;;;;;6.00;99.90;;;;;;5105636;28;19955;-67
2023/02/14 01:20:13;;;;;;;;;;;5.90;99.90;;;;;;5105571;28;19912;-67
2023/02/14 01:22:39;;;;;;;;;;;5.90;99.90;;;;;;5109607;28;19916;-67
2023/02/14 01:25:05;;;;;;;;;;;5.90;99.90;;;;;;5111317;28;19908;-67
2023/02/14 01:27:31;;;;;;;;;;;5.90;99.90;;;;;;5108025;28;20353;-66
2023/02/14 01:29:56;;;;;;;;;;;5.90;99.90;;;;;;5086390;28;19913;-66
2023/02/14 01:32:22;;;;;;;;;;;5.80;99.90;;;;;;5104771;28;20285;-66
2023/02/14 01:34:48;;;;;;;;;;;5.80;99.90;;;;;;5104410;28;19987;-66
2023/02/14 01:37:13;;;;;;;;;;;5.80;99.90;;;;;;5108725;28;19915;-66
2023/02/14 01:39:39;;;;;;;;;;;5.80;99.90;;;;;;5108336;28;19912;-66
2023/02/14 01:42:05;;;;;;;;;;;5.90;99.90;;;;;;5109249;28;19931;-66
2023/02/14 01:44:30;;;;;;;;;;;5.90;99.90;;;;;;5106739;28;20003;-66
2023/02/14 01:46:57;;;;;;;;;;;6.00;99.90;;;;;;5102799;28;19941;-65
2023/02/14 01:49:24;;;;;;;;;;;6.00;99.90;;;;;;5094941;28;20022;-66
2023/02/14 01:51:56;;;;;;;;;;;6.00;99.90;;;;;;5092264;28;19912;-67
2023/02/14 01:54:23;;;;;;;;;;;6.00;99.90;;;;;;5096687;28;19956;-64
2023/02/14 01:56:52;;;;;;;;;;;6.00;99.90;;;;;;5100067;28;19919;-67
2023/02/14 01:59:19;;;;;;;;;;;5.90;99.90;;;;;;5094804;28;19912;-67
2023/02/14 02:01:47;;;;;;;;;;;5.80;99.90;;;;;;5094101;28;20012;-65
2023/02/14 02:04:18;;;;;;;;;;;5.80;99.90;;;;;;5094869;28;19964;-67
2023/02/14 02:06:46;;;;;;;;;;;5.80;99.90;;;;;;5096088;28;19995;-65
2023/02/14 02:09:17;;;;;;;;;;;5.80;99.90;;;;;;5087467;28;20011;-66
2023/02/14 02:11:43;;;;;;;;;;;5.60;99.90;;;;;;5098247;28;20024;-65
2023/02/14 02:14:17;;;;;;;;;;;5.70;99.90;;;;;;5099747;28;20357;-67
2023/02/14 02:16:43;;;;;;;;;;;5.60;99.90;;;;;;5087662;28;19912;-67
2023/02/14 02:19:11;;;;;;;;;;;5.50;99.90;;;;;;5083955;28;19912;-65
2023/02/14 02:21:56;;;;;;;;;;;5.50;99.90;;;;;;5083461;28;20010;-65
2023/02/14 02:24:26;;;;;;;;;;;5.50;99.90;;;;;;5085343;28;19920;-66
2023/02/14 02:27:14;;;;;;;;;;;5.70;99.90;;;;;;5084988;28;20042;-67
2023/02/14 02:29:46;;;;;;;;;;;5.70;99.90;;;;;;5061233;28;19913;-66
2023/02/14 02:32:30;;;;;;;;;;;5.60;99.90;;;;;;5094344;28;19995;-66
2023/02/14 02:35:04;;;;;;;;;;;5.50;99.90;;;;;;5084479;28;19997;-66
2023/02/14 02:37:30;;;;;;;;;;;5.60;99.90;;;;;;5071699;28;19956;-66
2023/02/14 02:40:06;;;;;;;;;;;5.50;99.90;;;;;;5082253;28;20024;-67
2023/02/14 02:42:45;;;;;;;;;;;5.40;99.90;;;;;;5084445;28;20008;-67
2023/02/14 02:45:11;;;;;;;;;;;5.40;99.90;;;;;;5094077;28;19909;-67
2023/02/14 02:47:55;;;;;;;;;;;5.60;99.90;;;;;;5094034;28;19912;-67
2023/02/14 02:53:38;;;;;;;;;;;5.60;99.90;;;;;;5093139;28;19915;-67
2023/02/14 02:59:03;;;;;;;;;;;5.50;99.90;;;;;;5080693;28;20047;-67
2023/02/14 03:01:36;;;;;;;;;;;5.50;99.90;;;;;;5079629;28;20286;-66
2023/02/14 03:06:49;;;;;;;;;;;5.40;99.90;;;;;;5085118;28;20007;-65
2023/02/14 03:09:18;;;;;;;;;;;5.40;99.90;;;;;;5066980;28;20362;-66
2023/02/14 03:11:56;;;;;;;;;;;5.40;99.90;;;;;;5082945;28;19966;-66
2023/02/14 03:14:31;;;;;;;;;;;5.40;99.90;;;;;;5079547;28;20366;-66
2023/02/14 03:17:05;;;;;;;;;;;5.50;99.90;;;;;;5081782;28;20382;-66
2023/02/14 03:22:26;;;;;;;;;;;5.60;99.90;;;;;;5081291;28;19969;-66
2023/02/14 03:24:56;;;;;;;;;;;5.70;99.90;;;;;;5081941;28;20001;-67
2023/02/14 03:27:21;;;;;;;;;;;5.60;99.90;;;;;;5078148;28;19923;-66
2023/02/14 03:29:47;;;;;;;;;;;5.50;99.90;;;;;;5079224;28;19916;-67
2023/02/14 03:32:18;;;;;;;;;;;5.60;99.90;;;;;;5097390;28;19927;-67
2023/02/14 03:34:52;;;;;;;;;;;5.60;99.90;;;;;;5079882;28;19918;-67
2023/02/14 03:37:22;;;;;;;;;;;5.50;99.90;;;;;;5079580;28;19920;-66
2023/02/14 03:39:48;;;;;;;;;;;5.40;99.90;;;;;;5082839;28;19983;-67
2023/02/14 03:42:19;;;;;;;;;;;5.30;99.90;;;;;;5080897;28;20014;-67
2023/02/14 03:44:46;;;;;;;;;;;5.30;99.90;;;;;;5083071;28;19959;-65
2023/02/14 03:47:15;;;;;;;;;;;5.40;99.90;;;;;;5086719;28;20010;-66
2023/02/14 03:49:43;;;;;;;;;;;5.30;99.90;;;;;;5081860;28;19912;-66
2023/02/14 03:52:10;;;;;;;;;;;5.40;99.90;;;;;;5081371;28;19940;-65
2023/02/14 03:54:36;;;;;;;;;;;5.30;99.90;;;;;;5081249;28;19961;-67
2023/02/14 03:57:06;;;;;;;;;;;5.30;99.90;;;;;;5082620;28;19912;-67
2023/02/14 03:59:32;;;;;;;;;;;5.30;99.90;;;;;;5079980;28;19998;-65
2023/02/14 04:02:07;;;;;;;;;;;5.40;99.90;;;;;;5081351;28;20019;-65
2023/02/14 04:04:35;;;;;;;;;;;5.40;99.90;;;;;;5081066;28;20015;-65
2023/02/14 04:07:16;;;;;;;;;;;5.40;99.90;;;;;;5083144;28;20030;-66
2023/02/14 04:09:42;;;;;;;;;;;5.40;99.90;;;;;;5082694;28;19912;-66
2023/02/14 04:12:08;;;;;;;;;;;5.30;99.90;;;;;;5082855;28;19920;-67
2023/02/14 04:14:33;;;;;;;;;;;5.40;99.90;;;;;;5080684;28;19912;-67
2023/02/14 04:19:43;;;;;;;;;;;5.50;99.90;;;;;;5083659;28;19919;-67
2023/02/14 04:22:09;;;;;;;;;;;5.50;99.90;;;;;;5087065;28;19916;-66
2023/02/14 04:24:34;;;;;;;;;;;5.50;99.90;;;;;;5092893;28;19908;-67
2023/02/14 04:27:09;;;;;;;;;;;5.40;99.90;;;;;;5093704;28;19984;-66
2023/02/14 04:29:36;;;;;;;;;;;5.50;99.90;;;;;;5091548;28;19916;-64
2023/02/14 04:32:02;;;;;;;;;;;5.40;99.90;;;;;;5087972;28;19912;-66
2023/02/14 04:34:28;;;;;;;;;;;5.30;99.90;;;;;;5076813;28;19916;-67
2023/02/14 04:36:53;;;;;;;;;;;5.30;99.90;;;;;;5091966;28;19920;-66
2023/02/14 04:39:19;;;;;;;;;;;5.30;99.90;;;;;;5091955;28;19908;-66
2023/02/14 04:41:45;;;;;;;;;;;5.30;99.90;;;;;;5091388;28;19948;-66
2023/02/14 04:44:11;;;;;;;;;;;5.40;99.90;;;;;;5091436;28;20429;-66
2023/02/14 04:46:36;;;;;;;;;;;5.50;99.90;;;;;;5093372;28;19953;-66
2023/02/14 04:49:02;;;;;;;;;;;5.50;99.90;;;;;;5089140;28;20009;-66
2023/02/14 04:51:27;;;;;;;;;;;5.50;99.90;;;;;;5079067;28;19952;-67
2023/02/14 04:53:53;;;;;;;;;;;5.50;99.90;;;;;;5080164;28;19916;-65
2023/02/14 04:56:19;;;;;;;;;;;5.40;99.90;;;;;;5081388;28;19912;-66
2023/02/14 04:58:44;;;;;;;;;;;5.40;99.90;;;;;;5079560;28;20192;-66
2023/02/14 05:01:10;;;;;;;;;;;5.40;99.90;;;;;;5078514;28;19927;-67
2023/02/14 05:03:36;;;;;;;;;;;5.40;99.90;;;;;;5080826;28;19912;-64
2023/02/14 05:06:01;;;;;;;;;;;5.30;99.90;;;;;;5085697;28;20044;-67
2023/02/14 05:08:27;;;;;;;;;;;5.20;99.90;;;;;;5081055;28;19916;-65
2023/02/14 05:10:53;;;;;;;;;;;5.20;99.90;;;;;;5080736;28;19916;-66
2023/02/14 05:13:19;;;;;;;;;;;5.10;99.90;;;;;;5061731;28;19956;-65
2023/02/14 05:15:45;;;;;;;;;;;5.10;99.90;;;;;;5079328;28;20009;-66
2023/02/14 05:18:11;;;;;;;;;;;5.00;99.90;;;;;;5081237;28;19916;-66
2023/02/14 05:20:36;;;;;;;;;;;5.10;99.90;;;;;;5082292;28;19913;-66
2023/02/14 05:23:04;;;;;;;;;;;5.10;99.90;;;;;;5079301;28;19951;-66
2023/02/14 05:25:29;;;;;;;;;;;5.00;99.90;;;;;;5080542;28;19916;-66
2023/02/14 05:27:55;;;;;;;;;;;5.00;99.90;;;;;;5079737;28;19924;-66
2023/02/14 05:30:26;;;;;;;;;;;5.00;99.90;;;;;;5082234;28;19931;-67
2023/02/14 05:32:52;;;;;;;;;;;5.10;99.90;;;;;;5079974;28;19913;-66
2023/02/14 05:35:18;;;;;;;;;;;4.90;99.90;;;;;;5079915;28;19916;-66
2023/02/14 05:37:44;;;;;;;;;;;4.90;99.90;;;;;;5082999;28;20389;-67
2023/02/14 05:40:12;;;;;;;;;;;5.00;99.90;;;;;;5081613;28;19920;-70
2023/02/14 05:42:38;;;;;;;;;;;5.10;99.90;;;;;;5082772;28;19916;-65
2023/02/14 05:45:04;;;;;;;;;;;5.10;99.90;;;;;;5080274;28;20386;-67
2023/02/14 05:47:30;;;;;;;;;;;5.10;99.90;;;;;;5064182;28;19974;-66
2023/02/14 05:49:56;;;;;;;;;;;5.20;99.90;;;;;;5082102;28;19964;-67
2023/02/14 05:52:21;;;;;;;;;;;5.00;99.90;;;;;;5080367;28;19978;-67
2023/02/14 05:54:47;;;;;;;;;;;4.90;99.90;;;;;;5078891;28;19981;-65
2023/02/14 05:57:13;;;;;;;;;;;4.90;99.90;;;;;;5082119;28;19998;-68
2023/02/14 05:59:38;;;;;;;;;;;4.90;99.90;;;;;;5081050;28;19931;-67
2023/02/14 06:02:04;;;;;;;;;;;4.80;99.90;;;;;;5077712;28;19912;-66
2023/02/14 06:04:30;;;;;;;;;;;4.80;99.90;;;;;;5078759;28;20005;-68
2023/02/14 06:06:55;;;;;;;;;;;4.90;99.90;;;;;;5080728;28;19977;-65
2023/02/14 06:09:21;;;;;;;;;;;5.10;99.90;;;;;;5079154;28;19927;-65
2023/02/14 06:11:47;;;;;;;;;;;5.10;99.90;;;;;;5081096;28;19913;-66
2023/02/14 06:14:13;;;;;;;;;;;5.10;99.90;;;;;;5092105;28;19916;-65
2023/02/14 06:16:38;;;;;;;;;;;5.10;99.90;;;;;;5081488;28;19919;-67
2023/02/14 06:19:04;;;;;;;;;;;5.00;99.90;;;;;;5091284;28;19912;-67
2023/02/14 06:21:30;;;;;;;;;;;4.90;99.90;;;;;;5086121;28;19935;-65
2023/02/14 06:23:55;;;;;;;;;;;5.00;99.90;;;;;;5092990;28;19920;-66
2023/02/14 06:26:21;;;;;;;;;;;4.90;99.90;;;;;;5100115;28;19919;-67
2023/02/14 06:28:51;;;;;;;;;;;5.00;99.90;;;;;;5097567;28;19923;-66
2023/02/14 06:31:17;;;;;;;;;;;5.10;99.90;;;;;;5099903;28;19912;-64
2023/02/14 06:33:42;;;;;;;;;;;5.00;99.90;;;;;;5099868;28;19915;-67
2023/02/14 06:36:08;;;;;;;;;;;5.00;99.90;;;;;;5102750;28;19916;-65
2023/02/14 06:38:34;;;;;;;;;;;5.00;99.90;;;;;;5098483;28;20370;-65
2023/02/14 06:41:06;;;;;;;;;;;5.00;99.90;;;;;;5074900;28;20003;-66
2023/02/14 06:43:32;;;;;;;;;;;5.10;99.90;;;;;;5103396;28;20349;-64
2023/02/14 06:45:58;;;;;;;;;;;5.20;99.90;;;;;;5104783;28;19943;-62
2023/02/14 06:48:23;;;;;;;;;;;5.20;99.90;;;;;;5098671;28;19924;-64
2023/02/14 06:50:49;;;;;;;;;;;5.20;99.90;;;;;;5092764;28;20318;-65
2023/02/14 06:53:15;;;;;;;;;;;5.20;99.90;;;;;;5085420;28;19920;-67
2023/02/14 06:55:40;;;;;;;;;;;5.10;99.90;;;;;;5088387;28;19913;-66
2023/02/14 06:58:06;;;;;;;;;;;5.10;99.90;;;;;;5092681;28;19961;-65
2023/02/14 07:00:32;;;;;;;;;;;5.20;99.90;;;;;;5094076;28;19982;-65
2023/02/14 07:02:57;;;;;;;;;;;5.20;99.90;;;;;;5088889;28;19923;-66
2023/02/14 07:05:23;;;;;;;;;;;5.30;99.90;;;;;;5094458;28;20568;-66
2023/02/14 07:07:48;;;;;;;;;;;5.60;99.90;;;;;;5087876;28;20001;-67
2023/02/14 07:10:14;;;;;;;;;;;5.70;99.90;;;;;;5094525;28;19995;-66
2023/02/14 07:12:40;;;;;;;;;;;5.60;99.90;;;;;;5092999;28;19916;-67
2023/02/14 07:15:07;;;;;;;;;;;5.60;99.90;;;;;;5094443;28;19964;-65
2023/02/14 07:17:32;;;;;;;;;;;5.70;99.90;;;;;;5094636;28;20273;-66
2023/02/14 07:19:58;;;;;;;;;;;5.70;99.90;;;;;;5093451;28;19951;-65
2023/02/14 07:22:23;;;;;;;;;;;5.80;99.90;;;;;;5092756;28;19916;-65
2023/02/14 07:24:49;;;;;;;;;;;5.80;99.90;;;;;;5091286;28;19912;-67
2023/02/14 07:27:15;;;;;;;;;;;5.90;99.90;;;;;;5090602;28;19951;-68
2023/02/14 07:29:40;;;;;;;;;;;5.90;99.90;;;;;;5093648;28;19920;-68
2023/02/14 07:32:06;;;;;;;;;;;5.90;99.90;;;;;;5094215;28;19912;-64
2023/02/14 07:34:31;;;;;;;;;;;5.90;99.90;;;;;;5092962;28;19912;-64
2023/02/14 07:36:57;;;;;;;;;;;5.90;99.90;;;;;;5090121;28;19912;-66
2023/02/14 07:39:23;;;;;;;;;;;6.10;99.90;;;;;;5093049;28;20030;-65
2023/02/14 07:41:48;;;;;;;;;;;6.10;99.90;;;;;;5092529;28;20292;-66
2023/02/14 07:44:14;;;;;;;;;;;6.30;99.90;;;;;;5092496;28;19916;-65
2023/02/14 07:46:39;;;;;;;;;;;6.40;99.90;;;;;;5094841;28;19916;-66
2023/02/14 07:49:05;;;;;;;;;;;6.30;99.90;;;;;;5094360;28;19924;-66
2023/02/14 07:51:31;;;;;;;;;;;6.30;99.90;;;;;;5100073;28;19938;-66
2023/02/14 07:53:57;;;;;;;;;;;6.30;99.90;;;;;;5099623;28;20293;-66
2023/02/14 07:56:22;;;;;;;;;;;6.30;99.90;;;;;;5099996;28;19916;-66
2023/02/14 07:58:48;;;;;;;;;;;6.50;99.90;;;;;;5099272;28;19916;-66
2023/02/14 08:01:15;;;;;;;;;;;6.60;99.90;;;;;;5101125;28;19908;-67
2023/02/14 08:03:43;;;;;;;;;;;6.70;99.90;;;;;;5099855;28;19912;-65
2023/02/14 08:06:09;;;;;;;;;;;6.80;99.90;;;;;;5100880;28;19983;-67
2023/02/14 08:08:34;;;;;;;;;;;6.90;99.90;;;;;;5100753;28;19920;-66
2023/02/14 08:11:00;;;;;;;;;;;7.00;99.90;;;;;;5080239;28;19912;-65
2023/02/14 08:13:26;;;;;;;;;;;7.10;99.90;;;;;;5084777;28;19920;-66
2023/02/14 08:16:04;;;;;;;;;;;7.20;99.90;;;;;;5094621;28;19912;-66
2023/02/14 08:18:37;;;;;;;;;;;7.30;99.90;;;;;;5097691;28;19920;-65
2023/02/14 08:21:04;;;;;;;;;;;7.40;99.90;;;;;;5100017;28;20077;-67
2023/02/14 08:23:29;;;;;;;;;;;7.40;99.90;;;;;;5094102;28;19912;-67
2023/02/14 08:25:55;;;;;;;;;;;7.60;99.90;;;;;;5078989;28;19923;-67
2023/02/14 08:28:21;;;;;;;;;;;7.60;99.90;;;;;;5101167;28;19911;-68
2023/02/14 08:30:47;;;;;;;;;;;7.80;99.90;;;;;;5099214;28;20389;-71
2023/02/14 08:33:12;;;;;;;;;;;7.80;99.90;;;;;;5095831;28;19908;-66
2023/02/14 08:35:38;;;;;;;;;;;8.00;99.90;;;;;;5099484;28;19951;-67
2023/02/14 08:38:04;;;;;;;;;;;8.10;99.90;;;;;;5100590;28;19991;-67
2023/02/14 08:40:30;;;;;;;;;;;8.20;99.90;;;;;;5096675;28;19927;-67
2023/02/14 08:42:55;;;;;;;;;;;8.30;99.90;;;;;;5098418;28;20297;-67
2023/02/14 08:45:21;;;;;;;;;;;8.30;99.90;;;;;;5099821;28;19947;-67
2023/02/14 08:47:47;;;;;;;;;;;8.40;99.90;;;;;;5095928;28;19912;-67
2023/02/14 08:50:15;;;;;;;;;;;8.50;99.90;;;;;;5087511;28;20392;-67
2023/02/14 08:52:42;;;;;;;;;;;8.60;99.90;;;;;;5089269;28;19912;-67
2023/02/14 08:55:08;;;;;;;;;;;8.70;99.90;;;;;;5084931;28;20099;-67
2023/02/14 08:57:34;;;;;;;;;;;8.70;99.90;;;;;;5090855;28;19951;-67
2023/02/14 08:59:59;;;;;;;;;;;8.70;99.90;;;;;;5086341;28;20407;-67
2023/02/14 09:02:25;;;;;;;;;;;8.60;99.90;;;;;;5091533;28;20266;-67
2023/02/14 09:04:51;;;;;;;;;;;8.70;99.90;;;;;;5091396;28;20115;-67
2023/02/14 09:07:17;;;;;;;;;;;8.70;99.90;;;;;;5092867;28;20418;-67
2023/02/14 09:09:42;;;;;;;;;;;8.70;99.90;;;;;;5072428;28;20281;-67
2023/02/14 09:12:09;;;;;;;;;;;8.70;99.90;;;;;;5092576;28;20006;-68
2023/02/14 09:14:38;;;;;;;;;;;8.60;99.90;;;;;;5085703;28;19912;-67
2023/02/14 09:17:04;;;;;;;;;;;8.60;99.90;;;;;;5084702;28;19931;-67
2023/02/14 09:19:34;;;;;;;;;;;8.70;99.90;;;;;;5086527;28;20011;-67
2023/02/14 09:21:59;;;;;;;;;;;8.70;99.90;;;;;;5086514;28;20354;-67
2023/02/14 09:24:28;;;;;;;;;;;8.80;99.90;;;;;;5087657;28;20005;-68
2023/02/14 09:26:56;;;;;;;;;;;8.80;99.90;;;;;;5089290;28;19912;-67
2023/02/14 09:29:21;;;;;;;;;;;8.90;99.90;;;;;;5083438;28;19916;-68
2023/02/14 09:31:47;;;;;;;;;;;9.00;99.90;;;;;;5088122;28;19920;-67
2023/02/14 09:36:57;;;;;;;;;;;9.40;99.90;;;;;;5080373;28;19935;-67
2023/02/14 09:39:22;;;;;;;;;;;9.50;99.90;;;;;;5088121;28;19912;-68
2023/02/14 09:41:48;;;;;;;;;;;9.70;99.90;;;;;;5080200;28;19922;-68
2023/02/14 09:44:33;;;;;;;;;;;9.80;99.90;;;;;;5089885;28;19954;-68
2023/02/14 09:47:05;;;;;;;;;;;9.70;99.90;;;;;;5075652;28;19920;-69
2023/02/14 09:49:32;;;;;;;;;;;9.80;99.90;;;;;;5083403;28;20009;-68
2023/02/14 09:52:00;;;;;;;;;;;9.80;99.90;;;;;;5077852;28;19916;-68
2023/02/14 09:54:27;;;;;;;;;;;9.90;99.90;;;;;;5091043;28;19935;-68
2023/02/14 09:56:56;;;;;;;;;;;10.20;99.90;;;;;;5083046;28;20250;-68
2023/02/14 09:59:40;;;;;;;;;;;10.20;99.90;;;;;;5085628;28;19912;-67
2023/02/14 10:02:15;;;;;;;;;;;10.20;99.90;;;;;;5084027;28;19955;-68
2023/02/14 10:04:43;;;;;;;;;;;10.10;99.90;;;;;;5085384;28;19962;-68
2023/02/14 10:07:21;;;;;;;;;;;10.10;99.90;;;;;;5084067;28;19958;-67
2023/02/14 10:09:53;;;;;;;;;;;9.90;99.90;;;;;;5076061;28;20480;-68
2023/02/14 10:12:51;;;;;;;;;;;9.90;99.90;;;;;;5077879;28;19916;-67
2023/02/14 10:15:22;;;;;;;;;;;10.00;99.90;;;;;;5049228;28;19951;-65
2023/02/14 10:18:01;;;;;;;;;;;10.00;99.90;;;;;;5080288;28;19927;-68
2023/02/14 10:20:45;;;;;;;;;;;10.10;99.90;;;;;;5091248;28;20372;-68
2023/02/14 10:23:11;;;;;;;;;;;10.30;99.90;;;;;;5100277;28;19995;-67
2023/02/14 10:25:42;;;;;;;;;;;10.40;99.90;;;;;;5099066;28;19947;-67
2023/02/14 10:28:10;;;;;;;;;;;10.30;99.90;;;;;;5101897;28;19969;-72
2023/02/14 10:30:37;;;;;;;;;;;10.30;99.90;;;;;;5094128;28;19908;-67
2023/02/14 10:33:15;;;;;;;;;;;10.40;99.90;;;;;;5098837;28;19916;-68
2023/02/14 10:35:54;;;;;;;;;;;10.40;99.90;;;;;;5100436;28;19912;-68
2023/02/14 10:38:29;;;;;;;;;;;10.40;99.90;;;;;;5095400;28;19909;-67
2023/02/14 10:41:04;;;;;;;;;;;10.50;99.90;;;;;;5100074;28;19908;-68
2023/02/14 10:43:39;;;;;;;;;;;10.50;99.90;;;;;;5100239;28;19927;-67
2023/02/14 10:46:12;;;;;;;;;;;10.60;99.90;;;;;;5097810;28;19908;-68
2023/02/14 10:48:37;;;;;;;;;;;10.80;99.90;;;;;;5092970;28;19916;-68
2023/02/14 10:51:32;;;;;;;;;;;10.80;99.90;;;;;;5091216;28;19924;-68
2023/02/14 10:54:10;;;;;;;;;;;10.80;99.90;;;;;;5071723;28;19916;-71
2023/02/14 10:56:40;;;;;;;;;;;10.70;99.90;;;;;;5088957;28;19908;-68
2023/02/14 10:59:26;;;;;;;;;;;10.90;99.90;;;;;;5095374;28;19973;-68
2023/02/14 11:01:53;;;;;;;;;;;10.90;99.90;;;;;;5090701;28;19912;-68
2023/02/14 11:04:20;;;;;;;;;;;10.80;99.90;;;;;;5090848;28;19977;-68
2023/02/14 11:06:48;;;;;;;;;;;10.70;99.90;;;;;;5090017;28;19908;-68
2023/02/14 11:09:14;;;;;;;;;;;10.70;99.90;;;;;;5092975;28;19916;-67
2023/02/14 11:11:44;;;;;;;;;;;10.70;99.90;;;;;;5091563;28;19963;-68
2023/02/14 11:14:19;;;;;;;;;;;10.70;99.90;;;;;;5091967;28;19912;-68
2023/02/14 11:16:44;;;;;;;;;;;11.00;99.90;;;;;;5079659;28;19909;-68
2023/02/14 11:19:13;;;;;;;;;;;11.00;99.90;;;;;;5089777;28;19918;-67
2023/02/14 11:21:39;;;;;;;;;;;11.00;99.90;;;;;;5093808;28;19920;-68
2023/02/14 11:24:23;;;;;;;;;;;11.10;99.90;;;;;;5094227;28;19935;-68
2023/02/14 11:26:51;;;;;;;;;;;11.10;99.90;;;;;;5090835;28;20640;-67
2023/02/14 11:29:25;;;;;;;;;;;11.10;99.90;;;;;;5093563;28;19990;-73
2023/02/14 11:31:51;;;;;;;;;;;11.10;99.90;;;;;;5091600;28;19912;-68
2023/02/14 11:34:32;;;;;;;;;;;11.10;99.90;;;;;;5088014;28;19912;-69
2023/02/14 11:36:58;;;;;;;;;;;11.20;99.90;;;;;;5092510;28;19912;-67
2023/02/14 11:39:23;;;;;;;;;;;11.10;99.90;;;;;;5094427;28;19915;-67
2023/02/14 11:41:51;;;;;;;;;;;11.10;99.90;;;;;;5092768;28;19935;-68
2023/02/14 11:44:21;;;;;;;;;;;11.00;99.90;;;;;;5074859;28;19920;-68
2023/02/14 11:46:48;;;;;;;;;;;11.00;99.90;;;;;;5086214;28;20332;-68
2023/02/14 11:49:27;;;;;;;;;;;10.90;99.90;;;;;;5089098;28;19916;-68
2023/02/14 11:51:53;;;;;;;;;;;11.00;99.90;;;;;;5089738;28;19912;-72
2023/02/14 11:54:30;;;;;;;;;;;11.00;99.90;;;;;;5093503;28;20007;-68
2023/02/14 11:57:01;;;;;;;;;;;11.00;99.90;;;;;;5086307;28;19916;-68
2023/02/14 11:59:29;;;;;;;;;;;11.00;99.90;;;;;;5092787;28;19962;-68
2023/02/14 12:01:56;;;;;;;;;;;11.00;99.90;;;;;;5091837;28;19912;-68
2023/02/14 12:04:26;;;;;;;;;;;11.00;99.90;;;;;;5088691;28;19958;-69
2023/02/14 12:06:52;;;;;;;;;;;11.10;99.90;;;;;;5099605;28;19991;-67
2023/02/14 12:09:20;;;;;;;;;;;11.20;99.90;;;;;;5094396;28;19959;-68
2023/02/14 12:12:03;;;;;;;;;;;11.20;99.90;;;;;;5076877;28;20267;-67
2023/02/14 12:14:33;;;;;;;;;;;11.20;99.90;;;;;;5089268;28;20278;-68
2023/02/14 12:17:06;;;;;;;;;;;11.20;99.90;;;;;;5088790;28;19917;-71
2023/02/14 12:19:37;;;;;;;;;;;11.20;99.90;;;;;;5091934;28;19918;-68
2023/02/14 12:22:04;;;;;;;;;;;11.30;99.90;;;;;;5087490;28;20285;-67
2023/02/14 12:24:29;;;;;;;;;;;11.30;99.90;;;;;;5096695;28;19962;-69
2023/02/14 12:27:01;;;;;;;;;;;11.30;99.90;;;;;;5082896;28;19912;-68
2023/02/14 12:29:43;;;;;;;;;;;11.40;99.90;;;;;;5094507;28;19919;-68
2023/02/14 12:32:28;;;;;;;;;;;11.50;99.90;;;;;;5096561;28;20350;-68
2023/02/14 12:35:05;;;;;;;;;;;11.40;99.90;;;;;;5093485;28;20414;-68
2023/02/14 12:37:34;;;;;;;;;;;11.40;99.90;;;;;;5093554;28;19915;-67
2023/02/14 12:40:00;;;;;;;;;;;11.40;99.90;;;;;;5091724;28;20002;-67
2023/02/14 12:42:44;;;;;;;;;;;11.40;99.90;;;;;;5093950;28;20364;-67
2023/02/14 12:45:10;;;;;;;;;;;11.40;99.90;;;;;;5095504;28;19998;-67
2023/02/14 12:47:44;;;;;;;;;;;11.40;99.90;;;;;;5084097;28;20008;-68
2023/02/14 12:50:18;;;;;;;;;;;11.40;99.90;;;;;;5092959;28;19973;-68
2023/02/14 12:52:50;;;;;;;;;;;11.40;99.90;;;;;;5087625;28;19999;-68
2023/02/14 12:55:25;;;;;;;;;;;11.40;99.90;;;;;;5090113;28;19926;-68
2023/02/14 12:57:59;;;;;;;;;;;11.40;99.90;;;;;;5093213;28;19976;-68
2023/02/14 13:00:51;;;;;;;;;;;11.40;99.90;;;;;;5089051;28;19912;-67
2023/02/14 13:03:16;;;;;;;;;;;11.30;99.90;;;;;;5082003;28;19926;-67
2023/02/14 13:06:07;;;;;;;;;;;11.30;99.90;;;;;;5086118;28;19920;-68
2023/02/14 13:08:35;;;;;;;;;;;11.40;99.90;;;;;;5089526;28;19923;-67
2023/02/14 13:11:04;;;;;;;;;;;11.50;99.90;;;;;;5088337;28;19916;-67
2023/02/14 13:13:30;;;;;;;;;;;11.50;99.90;;;;;;5093386;28;19931;-67
2023/02/14 13:15:55;;;;;;;;;;;11.50;99.90;;;;;;5090237;28;19916;-67
2023/02/14 13:18:40;;;;;;;;;;;11.40;99.90;;;;;;5095354;28;19912;-68
2023/02/14 13:21:07;;;;;;;;;;;11.40;99.90;;;;;;5091066;28;19973;-67
2023/02/14 13:23:52;;;;;;;;;;;11.30;99.90;;;;;;5079600;28;20051;-67
2023/02/14 13:26:19;;;;;;;;;;;11.30;99.90;;;;;;5086330;28;19916;-67
2023/02/14 13:29:05;;;;;;;;;;;11.30;99.90;;;;;;5072854;28;19922;-68
2023/02/14 13:31:31;;;;;;;;;;;11.30;99.90;;;;;;5089770;28;20117;-70
2023/02/14 13:34:00;;;;;;;;;;;11.20;99.90;;;;;;5077733;28;20321;-67
2023/02/14 13:36:27;;;;;;;;;;;11.20;99.90;;;;;;5087985;28;19957;-67
2023/02/14 13:38:54;;;;;;;;;;;11.30;99.90;;;;;;5090838;28;19908;-67
2023/02/14 13:41:20;;;;;;;;;;;11.30;99.90;;;;;;5086168;28;20502;-68
2023/02/14 13:43:50;;;;;;;;;;;11.30;99.90;;;;;;5087287;28;20432;-68
2023/02/14 13:46:21;;;;;;;;;;;11.40;99.90;;;;;;5088946;28;19948;-67
2023/02/14 13:48:59;;;;;;;;;;;11.30;99.90;;;;;;5085762;28;19916;-68
2023/02/14 13:51:57;;;;;;;;;;;11.30;99.90;;;;;;5094889;28;19912;-68
2023/02/14 13:54:43;;;;;;;;;;;11.40;99.90;;;;;;5061192;28;19955;-70
2023/02/14 13:57:30;;;;;;;;;;;11.30;99.90;;;;;;5083295;28;19938;-67
2023/02/14 14:00:14;;;;;;;;;;;11.30;99.90;;;;;;5072834;28;20362;-68
2023/02/14 14:02:42;;;;;;;;;;;11.30;99.90;;;;;;5092729;28;19996;-67
2023/02/14 14:05:26;;;;;;;;;;;11.20;99.90;;;;;;5096350;28;20025;-67
2023/02/14 14:08:12;;;;;;;;;;;11.40;99.90;;;;;;5086732;28;19923;-68
2023/02/14 14:10:43;;;;;;;;;;;11.50;99.90;;;;;;5086902;28;19966;-67
2023/02/14 14:13:09;;;;;;;;;;;11.50;99.90;;;;;;5090927;28;19942;-68
2023/02/14 14:15:34;;;;;;;;;;;11.40;99.90;;;;;;5093853;28;19968;-67
2023/02/14 14:18:12;;;;;;;;;;;11.50;99.90;;;;;;5093979;28;19912;-68
2023/02/14 14:20:40;;;;;;;;;;;11.50;99.90;;;;;;5085325;28;19962;-67
2023/02/14 14:23:25;;;;;;;;;;;11.40;99.90;;;;;;5092457;28;19916;-68
2023/02/14 14:25:50;;;;;;;;;;;11.40;99.90;;;;;;5088067;28;19911;-67
2023/02/14 14:28:21;;;;;;;;;;;11.40;99.90;;;;;;5096625;28;20016;-67
2023/02/14 14:30:47;;;;;;;;;;;11.30;99.90;;;;;;5096499;28;19975;-68
2023/02/14 14:33:14;;;;;;;;;;;11.30;99.90;;;;;;5095860;28;20355;-67
2023/02/14 14:35:50;;;;;;;;;;;11.30;99.90;;;;;;5095730;28;20392;-67
2023/02/14 14:38:16;;;;;;;;;;;11.30;99.90;;;;;;5092151;28;19908;-67
2023/02/14 14:40:44;;;;;;;;;;;11.30;99.90;;;;;;5094579;28;20214;-68
2023/02/14 14:43:21;;;;;;;;;;;11.30;99.90;;;;;;5094561;28;19919;-67
2023/02/14 14:45:47;;;;;;;;;;;11.30;99.90;;;;;;5095513;28;19915;-68
2023/02/14 14:48:16;;;;;;;;;;;11.40;99.90;;;;;;5094060;28;20051;-67
2023/02/14 14:50:44;;;;;;;;;;;11.40;99.90;;;;;;5094072;28;19912;-67
2023/02/14 14:53:18;;;;;;;;;;;11.50;99.90;;;;;;5084548;28;20258;-68
2023/02/14 14:55:44;;;;;;;;;;;11.50;99.90;;;;;;5075128;28;20333;-67
2023/02/14 14:58:31;;;;;;;;;;;11.50;99.90;;;;;;5088108;28;19944;-67